• Join FlightAware (Why Join?)
  • Login
  • US Flag 
06:10AM EDT


 

Airport Tracker/Info


-or-


 

Live Flight TrackerFlight Track Log ✈ LYM1725 ✈ 29-Apr-2013 ✈ KRIW - KDEN

Flight Track Log - Related Links

Times and Time Zones

All times are in EDT time to prevent confusion due to time zone crossing. See the LYM1725 flight status page for this flight to view local times or setup timezone preferences in your user account.

Time Position Orientation Groundspeed Altitude Reporting Facility
EDT Latitude Longitude Course Direction KTS MPH feet Rate Location/Type
09:02PM 43.0156 -108.3808 137° Southeast 221 254 10,800  Level Salt Lake Center
09:03PM 42.9831 -108.3125 123° Southeast 225 259 12,800 1,500 Climbing Salt Lake Center
09:04PM 42.9403 -108.2358 127° Southeast 228 262 13,900 1,020 Climbing Salt Lake Center
09:05PM 42.8994 -108.1681 129° Southeast 234 269 15,000 1,320 Climbing Salt Lake Center
09:06PM 42.8572 -108.0906 127° Southeast 252 290 16,700 1,620 Climbing Salt Lake Center
09:07PM 42.8072 -108.0011 127° Southeast 263 303 18,400 1,500 Climbing Salt Lake Center
09:08PM 42.7460 -108.0593 137° Southeast  Level Estimated
09:08PM 42.7628 -107.9250 128° Southeast 265 305 19,800  Level Salt Lake Center
09:09PM 42.7069 -107.8417 132° Southeast 267 307 21,000 540 Climbing Salt Lake Center
09:10PM 42.6564 -107.7575 129° Southeast 287 330 21,000  Level Salt Lake Center
09:12PM 42.6011 -107.6678 130° Southeast 312 359 21,100  Climbing Salt Lake Center
09:13PM 42.5375 -107.5614 129° Southeast 323 372 21,000 -60 Descending Salt Lake Center
09:14PM 42.4806 -107.4733 131° Southeast 324 373 21,000  Level Salt Lake Center
09:15PM 42.4200 -107.3686 128° Southeast 320 368 21,000  Level Salt Lake Center
09:16PM 42.3636 -107.2528 123° Southeast 323 372 21,100  Climbing Denver Center
09:17PM 42.3022 -107.1369 126° Southeast 330 380 21,100 -60 Level Denver Center
09:18PM 42.2497 -107.0381 126° Southeast 334 384 21,000 -120 Descending Denver Center
09:19PM 42.1897 -106.9175 124° Southeast 341 392 20,900  Descending Denver Center
09:20PM 42.1439 -106.8097 120° Southeast 345 397 21,100  Climbing Denver Center
09:21PM 42.0983 -106.6778 115° Southeast 349 402 21,000 -60 Descending Denver Center
09:22PM 42.0600 -106.5678 115° Southeast 345 397 21,000 -60 Level Denver Center
09:23PM 42.0169 -106.4519 117° Southeast 323 372 20,900  Descending Denver Center
09:24PM 41.9608 -106.3856 139° Southeast 295 339 21,000  Climbing Denver Center
09:25PM 41.9011 -106.3247 143° Southeast 284 327 21,000  Level Denver Center
09:26PM 41.8178 -106.2411 143° Southeast 286 329 21,000 -120 Level Denver Center
09:27PM 41.7511 -106.1694 141° Southeast 278 320 20,800 -540 Descending Denver Center
09:28PM 41.6883 -106.1042 142° Southeast 292 336 19,900 -780 Descending Denver Center
09:29PM 41.6078 -106.0217 143° Southeast 318 366 19,300 -420 Descending Denver Center
09:30PM 41.5397 -105.9506 142° Southeast 323 372 19,100 -360 Descending Denver Center
09:32PM 41.4636 -105.8661 140° Southeast 320 368 18,600 -960 Descending Denver Center
09:33PM 41.4008 -105.7919 138° Southeast 320 368 17,200 -1,080 Descending Denver Center
09:34PM 41.3267 -105.7069 139° Southeast 318 366 16,400 -540 Descending Denver Center
09:35PM 41.2778 -105.6164 126° Southeast 327 376 16,200 -540 Descending Denver Center
09:36PM 41.2192 -105.5325 133° Southeast 321 369 15,400 -780 Descending Denver Center
09:37PM 41.1519 -105.4319 132° Southeast 325 374 14,600 -840 Descending Denver Center
09:38PM 41.0928 -105.3492 133° Southeast 325 374 13,700 -780 Descending Denver Center
09:39PM 41.0289 -105.2508 131° Southeast 318 366 13,100 -300 Descending Denver Center
09:40PM 40.9783 -105.1758 132° Southeast 306 352 13,100  Level Denver Center
09:41PM 40.9169 -105.0811 131° Southeast 292 336 13,100  Level Denver Center
09:42PM 40.8672 -104.9975 128° Southeast 287 330 13,100 -60 Level Denver Center
09:43PM 40.8178 -104.9169 129° Southeast 283 326 13,000 -60 Descending Denver Center
09:44PM 40.7575 -104.8575 143° Southeast 275 316 13,000  Level Denver Center
09:45PM 40.6772 -104.8550 179° South 265 305 13,000  Level Denver Center
09:46PM 40.6056 -104.8503 177° South 259 298 13,000 -300 Level Denver Center
09:47PM 40.5397 -104.8339 169° South 282 325 12,400 -720 Descending Denver Center
09:48PM 40.4442 -104.8036 166° South 285 328 11,600 -600 Descending Denver Center
09:49PM 40.3642 -104.7836 169° South 291 335 11,200 -300 Descending Denver Center
09:50PM 40.2806 -104.7689 172° South 282 325 11,000 -60 Descending Denver Center
09:51PM 40.2061 -104.7753 184° South 268 308 11,100  Climbing Denver Center
09:52PM 40.1278 -104.7758 180° South 264 304 11,100 -60 Level Denver Center
09:54PM 40.0489 -104.7989 193° South 248 285 11,000  Descending Denver Center
09:55PM 39.9881 -104.8122 190° South 267 307 11,100  Climbing Denver Center
09:56PM 39.9342 -104.7547 141° Southeast 266 306 11,100  Level Denver Center
09:57PM 39.8589 -104.7550 180° South 254 292 11,100 -240 Level Denver Center
09:59PM 39.7167 -104.8000 194° South 257 296 10,500 -540 Descending Denver TRACON
10:00PM 39.6500 -104.7833 169° South 262 302 9,600 -1,020 Descending Denver TRACON
10:01PM 39.6833 -104.7000 63° Northeast 240 276 8,500 -960 Descending Denver TRACON
10:02PM 39.7167 -104.6667 38° Northeast 199 229 7,700 -1,080 Descending Denver TRACON
10:03PM 39.7833 -104.6667 360° North 182 209 6,300 -1,080 Descending Denver TRACON
10:04PM 39.8167 -104.6667 360° North 165 190 5,600 -780 Descending Denver TRACON
10:06PM 39.8500 -104.6667 355° North  Level FlightAware Approximate